Time;durP1;ratioP1;P1;durP2;ratioP2;P2;SDS_P1;SDS_P2;PMS_P1;PMS_P2;Temp;Humidity;BMP_temperature;BMP_pressure;BME280_temperature;BME280_humidity;BME280_pressure;Samples;Min_cycle;Max_cycle;Signal;HPM_P1;HPM_P2
2023/03/08 04:08:11;;;;;;;785.70;709.33;;;0.80;99.90;;;;;;6211782;23;21047;-88
2023/03/08 04:13:24;;;;;;;791.77;715.67;;;0.80;99.90;;;;;;6154087;23;20414;-89
2023/03/08 04:26:29;;;;;;;789.90;712.73;;;0.80;99.90;;;;;;6161176;23;20429;-87
2023/03/08 05:26:01;;;;;;;797.27;718.17;;;0.90;99.90;;;;;;6191525;23;20387;-85
2023/03/08 06:05:39;;;;;;;834.37;752.87;;;0.70;99.90;;;;;;6208459;23;20483;-86
2023/03/08 06:08:13;;;;;;;830.00;748.40;;;0.80;99.90;;;;;;6194157;23;20393;-87
2023/03/08 06:10:51;;;;;;;818.83;737.37;;;0.90;99.90;;;;;;6183706;23;20448;-90
2023/03/08 06:13:20;;;;;;;835.30;752.40;;;0.80;99.90;;;;;;6183008;23;20900;-87
2023/03/08 06:15:49;;;;;;;845.00;762.33;;;0.80;99.90;;;;;;6193832;23;20925;-87
2023/03/08 06:18:17;;;;;;;844.73;761.50;;;0.90;99.90;;;;;;6158034;23;20417;-86
2023/03/08 06:55:37;;;;;;;840.37;758.00;;;0.80;99.90;;;;;;6193949;23;20481;-93
2023/03/08 07:32:39;;;;;;;824.23;740.17;;;0.80;99.90;;;;;;5949828;22;6130370;-93
2023/03/08 07:35:10;;;;;;;833.00;750.80;;;1.00;99.90;;;;;;6170719;23;20189;-94
2023/03/08 07:37:50;;;;;;;830.93;747.53;;;1.00;99.90;;;;;;6170287;23;20406;-91
2023/03/08 07:40:21;;;;;;;824.37;741.00;;;1.00;99.90;;;;;;6159004;23;20506;-92
2023/03/08 07:42:51;;;;;;;834.23;751.90;;;1.00;99.90;;;;;;6131371;23;20414;-93
2023/03/08 07:50:33;;;;;;;834.80;752.93;;;1.00;99.90;;;;;;6152840;23;20447;-92
2023/03/08 07:53:06;;;;;;;839.90;757.90;;;1.10;99.90;;;;;;6170028;23;20382;-94
2023/03/08 07:56:02;;;;;;;;;;;;;;;;;;;;;
2023/03/08 07:58:31;;;;;;;839.90;757.80;;;0.90;99.90;;;;;;6170095;23;20390;-93
2023/03/08 08:01:08;;;;;;;827.40;746.07;;;1.00;99.90;;;;;;6170598;23;20438;-91
2023/03/08 08:03:44;;;;;;;825.47;744.50;;;0.90;99.90;;;;;;6170568;23;20414;-95
2023/03/08 08:06:12;;;;;;;836.33;754.87;;;1.00;99.90;;;;;;6170046;23;20413;-93
2023/03/08 08:08:41;;;;;;;832.57;751.17;;;1.30;99.90;;;;;;6167518;23;20402;-95
2023/03/08 08:11:15;;;;;;;834.37;753.20;;;1.20;99.90;;;;;;6169610;23;20422;-94
2023/03/08 08:13:43;;;;;;;831.63;750.17;;;1.20;99.90;;;;;;6160329;23;20382;-94
2023/03/08 08:16:14;;;;;;;834.77;753.77;;;1.20;99.90;;;;;;6169639;23;20426;-94
2023/03/08 08:18:44;;;;;;;828.53;748.17;;;1.20;99.90;;;;;;6169418;23;20414;-93
2023/03/08 08:21:16;;;;;;;828.77;748.30;;;1.30;99.90;;;;;;6169634;23;20223;-91
2023/03/08 08:23:47;;;;;;;830.57;749.90;;;1.30;99.90;;;;;;6170371;23;20477;-93
2023/03/08 08:26:16;;;;;;;832.50;752.63;;;1.40;99.90;;;;;;6168643;23;20411;-94
2023/03/08 08:28:48;;;;;;;834.27;754.87;;;1.30;99.90;;;;;;6163698;23;20423;-94
2023/03/08 08:31:17;;;;;;;829.53;750.80;;;1.40;99.90;;;;;;6160792;23;20435;-92
2023/03/08 08:33:45;;;;;;;830.77;751.10;;;1.60;99.90;;;;;;6162056;23;20410;-94
2023/03/08 08:36:15;;;;;;;833.03;754.17;;;1.60;99.90;;;;;;6150866;23;20441;-93
2023/03/08 08:38:42;;;;;;;833.30;754.87;;;1.70;99.90;;;;;;6150529;23;20399;-94
2023/03/08 08:41:10;;;;;;;824.03;746.90;;;1.80;99.90;;;;;;6158313;23;20518;-93
2023/03/08 08:43:37;;;;;;;828.13;751.43;;;1.80;99.90;;;;;;6153989;23;20414;-94
2023/03/08 08:46:05;;;;;;;823.27;748.10;;;1.80;99.90;;;;;;6152516;23;20438;-93
2023/03/08 08:48:33;;;;;;;823.93;750.70;;;1.80;99.90;;;;;;6150725;23;20445;-92
2023/03/08 08:51:00;;;;;;;824.90;751.20;;;1.90;99.90;;;;;;6143384;23;20442;-93
2023/03/08 08:53:28;;;;;;;820.13;747.47;;;2.00;99.90;;;;;;6146983;23;20992;-93
2023/03/08 08:55:55;;;;;;;811.43;739.63;;;2.00;99.90;;;;;;6156796;23;20430;-93
2023/03/08 08:58:22;;;;;;;816.60;744.93;;;2.00;99.90;;;;;;6155790;23;20419;-93
2023/03/08 09:00:49;;;;;;;807.87;737.73;;;2.10;99.90;;;;;;6147212;23;20438;-93
2023/03/08 09:03:16;;;;;;;805.23;735.10;;;2.10;99.90;;;;;;6148722;23;20407;-93
2023/03/08 09:05:45;;;;;;;796.87;728.70;;;2.30;99.90;;;;;;6159966;23;20758;-94
2023/03/08 09:08:12;;;;;;;797.93;729.27;;;2.20;99.90;;;;;;6150551;23;20411;-93
2023/03/08 09:10:40;;;;;;;787.53;721.87;;;2.30;99.90;;;;;;6160012;23;20461;-93
2023/03/08 09:13:08;;;;;;;786.53;722.93;;;2.60;99.90;;;;;;6151109;23;20483;-94
2023/03/08 09:15:35;;;;;;;771.90;710.83;;;2.70;99.90;;;;;;6150425;23;20435;-94
2023/03/08 09:18:02;;;;;;;759.83;702.37;;;2.60;99.90;;;;;;6158566;23;20415;-93
2023/03/08 09:20:29;;;;;;;755.83;700.33;;;2.50;99.90;;;;;;6158687;23;20434;-94
2023/03/08 09:22:56;;;;;;;749.77;695.13;;;2.50;99.90;;;;;;6160735;23;20423;-93
2023/03/08 09:25:24;;;;;;;749.53;696.20;;;2.60;99.90;;;;;;6161754;23;20395;-93
2023/03/08 09:27:52;;;;;;;737.37;686.27;;;2.60;99.90;;;;;;6162144;23;20398;-93
2023/03/08 09:30:20;;;;;;;729.80;682.47;;;2.70;99.90;;;;;;6161149;23;20434;-94
2023/03/08 09:32:47;;;;;;;729.97;684.30;;;2.70;99.90;;;;;;6152331;23;20411;-93
2023/03/08 09:35:15;;;;;;;715.03;669.80;;;2.50;99.90;;;;;;6163292;23;20446;-93
2023/03/08 09:37:46;;;;;;;701.13;660.77;;;2.80;99.90;;;;;;6163032;23;20407;-94
2023/03/08 09:40:20;;;;;;;683.80;646.80;;;2.80;99.90;;;;;;6162618;23;20426;-95
2023/03/08 09:42:47;;;;;;;662.13;627.13;;;2.90;99.90;;;;;;6163291;23;20407;-95
2023/03/08 09:45:24;;;;;;;635.57;604.57;;;3.00;99.90;;;;;;6162707;23;20410;-95
2023/03/08 09:47:56;;;;;;;618.40;589.20;;;3.00;99.90;;;;;;6159520;23;20425;-94
2023/03/08 09:50:35;;;;;;;580.17;554.63;;;2.90;99.90;;;;;;6161839;23;20450;-95
2023/03/08 09:53:23;;;;;;;596.27;569.17;;;3.00;99.90;;;;;;6162886;23;20435;-95
2023/03/08 09:59:07;;;;;;;580.77;554.83;;;2.90;99.90;;;;;;6151442;23;20415;-92
2023/03/08 10:02:01;;;;;;;559.90;536.03;;;3.20;99.90;;;;;;6161723;23;20438;-95
2023/03/08 10:04:49;;;;;;;596.33;570.13;;;3.20;99.90;;;;;;6162543;23;20395;-95
2023/03/08 11:24:20;;;;;;;33.43;30.60;;;5.50;99.90;;;;;;6131229;23;20841;-81
2023/03/08 11:27:09;;;;;;;29.90;27.40;;;5.50;99.90;;;;;;6122427;23;20411;-81
2023/03/08 11:29:44;;;;;;;28.07;25.50;;;5.00;99.90;;;;;;6125316;23;20414;-80
2023/03/08 11:32:28;;;;;;;34.00;31.30;;;4.90;99.90;;;;;;6132226;23;20410;-83
2023/03/08 11:37:44;;;;;;;59.87;56.23;;;4.40;99.90;;;;;;6149501;23;20535;-86
2023/03/08 11:40:29;;;;;;;71.63;67.33;;;4.50;99.90;;;;;;6161521;23;20441;-82
2023/03/08 11:43:18;;;;;;;93.60;88.90;;;4.40;99.90;;;;;;6149748;23;20413;-84
2023/03/08 11:48:40;;;;;;;151.57;144.93;;;4.50;99.90;;;;;;6149712;23;20443;-85
2023/03/08 11:51:23;;;;;;;163.80;156.50;;;4.50;99.90;;;;;;6151698;23;20430;-84
2023/03/08 11:54:03;;;;;;;176.17;169.00;;;4.30;99.90;;;;;;6153536;23;20398;-85
2023/03/08 11:56:46;;;;;;;212.33;203.63;;;4.50;99.90;;;;;;6133811;23;20799;-83
2023/03/08 11:59:23;;;;;;;238.67;229.60;;;4.60;99.90;;;;;;6133216;23;20419;-83
2023/03/08 12:01:56;;;;;;;243.57;233.87;;;4.70;99.90;;;;;;6134117;23;20450;-84
2023/03/08 12:04:36;;;;;;;240.63;230.87;;;4.90;99.90;;;;;;6125063;23;20434;-83
2023/03/08 12:07:07;;;;;;;181.13;173.17;;;5.00;99.90;;;;;;6135618;23;20419;-81
2023/03/08 12:30:50;;;;;;;39.80;36.30;;;6.10;99.90;;;;;;6173933;23;20441;-89
2023/03/08 12:33:18;;;;;;;29.67;26.97;;;6.10;99.90;;;;;;6167047;23;20414;-90
2023/03/08 12:35:56;;;;;;;26.57;24.23;;;5.80;99.90;;;;;;6165483;23;20491;-88
2023/03/08 12:38:35;;;;;;;32.00;29.27;;;5.70;99.90;;;;;;6129187;23;20424;-88
2023/03/08 12:41:05;;;;;;;40.00;36.90;;;5.60;99.90;;;;;;6154838;23;20453;-89
2023/03/08 12:43:44;;;;;;;39.23;36.43;;;5.60;99.90;;;;;;6129413;23;20424;-89
2023/03/08 12:46:14;;;;;;;40.90;37.70;;;5.60;99.90;;;;;;6129643;23;20460;-83
2023/03/08 12:48:54;;;;;;;44.70;41.70;;;5.60;99.90;;;;;;6138866;23;20414;-84
2023/03/08 12:51:25;;;;;;;44.80;41.20;;;5.70;99.90;;;;;;6164266;23;20412;-82
2023/03/08 12:53:59;;;;;;;57.10;53.50;;;5.70;99.90;;;;;;6164044;23;20798;-83
2023/03/08 12:56:31;;;;;;;62.43;58.63;;;5.70;99.90;;;;;;6154334;23;20488;-84
2023/03/08 12:59:08;;;;;;;73.37;69.30;;;5.90;99.90;;;;;;6153716;23;20472;-84
2023/03/08 13:01:40;;;;;;;54.47;50.97;;;6.20;99.90;;;;;;6162654;23;20418;-83
2023/03/08 13:04:23;;;;;;;50.53;47.43;;;5.90;99.90;;;;;;6154262;23;20424;-83
2023/03/08 13:07:22;;;;;;;53.47;49.33;;;6.10;99.90;;;;;;6154496;23;20394;-84
2023/03/08 13:09:59;;;;;;;41.07;37.93;;;6.20;99.90;;;;;;6128312;23;20398;-83
2023/03/08 13:12:41;;;;;;;32.53;30.03;;;5.90;99.90;;;;;;6103975;23;20456;-84
2023/03/08 13:15:24;;;;;;;30.70;28.10;;;5.60;99.90;;;;;;6127483;23;20512;-83
2023/03/08 13:18:08;;;;;;;34.07;31.37;;;5.60;99.90;;;;;;6153145;23;20451;-83
2023/03/08 13:20:56;;;;;;;40.63;37.87;;;5.50;99.90;;;;;;6153488;23;20445;-84
2023/03/08 13:23:29;;;;;;;56.03;52.77;;;5.50;99.90;;;;;;6103328;23;20441;-83
2023/03/08 13:26:12;;;;;;;61.27;57.60;;;5.40;99.90;;;;;;6152754;23;20438;-82
2023/03/08 13:28:42;;;;;;;61.13;57.70;;;5.40;99.90;;;;;;6128698;23;20783;-82
2023/03/08 13:31:15;;;;;;;60.93;57.23;;;5.30;99.90;;;;;;6128569;23;20433;-83
2023/03/08 13:33:46;;;;;;;70.67;66.67;;;5.10;99.90;;;;;;6154479;23;20424;-82
2023/03/08 13:36:19;;;;;;;113.20;108.10;;;4.90;99.90;;;;;;6154933;23;20496;-82
2023/03/08 13:38:57;;;;;;;168.43;161.57;;;4.90;99.90;;;;;;6154715;23;20418;-83
2023/03/08 13:41:38;;;;;;;232.10;223.20;;;5.00;99.90;;;;;;6129184;23;20398;-82
2023/03/08 13:44:07;;;;;;;245.23;236.03;;;5.00;99.90;;;;;;6104545;23;20418;-83
2023/03/08 13:46:36;;;;;;;264.67;254.97;;;5.20;99.90;;;;;;6164434;23;20420;-83
2023/03/08 13:49:12;;;;;;;242.73;233.10;;;5.20;99.90;;;;;;6164134;23;20476;-83
2023/03/08 13:51:39;;;;;;;233.97;225.17;;;5.20;99.90;;;;;;6164484;23;20441;-83
2023/03/08 13:54:14;;;;;;;259.53;249.73;;;5.10;99.90;;;;;;6154042;23;20425;-83
2023/03/08 13:56:42;;;;;;;257.67;248.17;;;5.10;99.90;;;;;;6164261;23;20468;-83
2023/03/08 13:59:20;;;;;;;295.60;284.50;;;5.10;99.90;;;;;;6154238;23;20424;-83
2023/03/08 14:01:48;;;;;;;284.90;274.50;;;5.20;99.90;;;;;;6164129;23;20410;-83
2023/03/08 14:04:21;;;;;;;305.07;293.60;;;5.00;99.90;;;;;;6164162;23;20508;-83
2023/03/08 14:06:52;;;;;;;289.83;279.40;;;5.00;99.90;;;;;;6154184;23;20414;-83
2023/03/08 14:09:21;;;;;;;311.07;299.70;;;4.80;99.90;;;;;;6153662;23;20414;-83
2023/03/08 14:11:57;;;;;;;403.47;388.40;;;4.70;99.90;;;;;;6104122;23;20774;-83
2023/03/08 14:14:30;;;;;;;483.77;464.67;;;4.80;99.90;;;;;;6104077;23;20437;-83
2023/03/08 14:16:57;;;;;;;498.00;478.53;;;5.00;99.90;;;;;;6154503;23;20933;-83
2023/03/08 14:19:29;;;;;;;535.20;513.20;;;5.10;99.90;;;;;;6154219;23;20414;-82
2023/03/08 14:21:58;;;;;;;546.20;523.60;;;5.20;99.90;;;;;;6164248;23;20418;-83
2023/03/08 14:24:27;;;;;;;513.07;492.77;;;5.10;99.90;;;;;;6154119;23;20452;-82
2023/03/08 14:26:59;;;;;;;560.47;537.37;;;5.00;99.90;;;;;;6128763;23;20497;-83
2023/03/08 14:29:27;;;;;;;604.10;577.43;;;5.00;99.90;;;;;;6153590;23;20404;-83
2023/03/08 14:32:26;;;;;;;648.17;617.97;;;5.00;99.90;;;;;;6164344;23;20434;-83
2023/03/08 14:35:06;;;;;;;676.50;642.40;;;5.00;99.90;;;;;;6153651;23;20472;-83
2023/03/08 14:37:34;;;;;;;686.63;650.97;;;5.00;99.90;;;;;;6163812;23;21014;-83
2023/03/08 14:40:24;;;;;;;690.97;655.37;;;4.80;99.90;;;;;;6154088;23;20500;-83
2023/03/08 14:42:54;;;;;;;710.40;672.10;;;4.80;99.90;;;;;;6129419;23;20473;-83
2023/03/08 14:45:23;;;;;;;721.53;680.90;;;4.50;99.90;;;;;;6163761;23;20512;-83
2023/03/08 14:47:52;;;;;;;739.37;694.83;;;4.50;99.90;;;;;;6103780;23;20745;-83
2023/03/08 14:50:23;;;;;;;749.13;701.57;;;4.40;99.90;;;;;;6154310;23;20425;-83
2023/03/08 14:52:52;;;;;;;756.93;707.20;;;4.30;99.90;;;;;;6154171;23;20488;-83
2023/03/08 14:55:23;;;;;;;762.33;709.80;;;4.30;99.90;;;;;;6154270;23;20434;-83
2023/03/08 14:57:52;;;;;;;758.73;705.10;;;4.10;99.90;;;;;;6153688;23;20422;-83
2023/03/08 15:00:21;;;;;;;766.37;710.77;;;4.20;99.90;;;;;;6153617;23;20776;-83
2023/03/08 15:02:48;;;;;;;776.53;718.47;;;4.10;99.90;;;;;;6153027;23;20476;-83
2023/03/08 15:05:17;;;;;;;779.47;719.90;;;4.10;99.90;;;;;;6153012;23;21009;-82
2023/03/08 15:07:47;;;;;;;786.07;724.50;;;4.00;99.90;;;;;;6163387;23;20518;-83
2023/03/08 15:10:22;;;;;;;779.77;717.40;;;4.00;99.90;;;;;;6153596;23;20434;-83
2023/03/08 15:12:49;;;;;;;781.93;718.57;;;4.00;99.90;;;;;;6163682;23;20461;-85
2023/03/08 15:15:17;;;;;;;778.37;715.70;;;4.10;99.90;;;;;;6163391;23;20433;-85
2023/03/08 15:17:44;;;;;;;784.20;723.60;;;4.10;99.90;;;;;;6153894;23;20439;-84
2023/03/08 15:20:12;;;;;;;775.77;713.37;;;4.20;99.90;;;;;;6137494;23;20493;-85
2023/03/08 15:22:49;;;;;;;781.10;715.90;;;4.20;99.90;;;;;;6162118;23;20799;-84
2023/03/08 15:25:24;;;;;;;787.97;722.17;;;4.20;99.90;;;;;;6152645;23;20465;-85
2023/03/08 15:27:51;;;;;;;779.30;714.63;;;4.30;99.90;;;;;;6162991;23;20574;-85
2023/03/08 15:30:20;;;;;;;782.47;717.87;;;4.30;99.90;;;;;;6163113;23;20449;-84
2023/03/08 15:32:48;;;;;;;784.80;722.00;;;4.30;99.90;;;;;;6163325;23;20418;-85
2023/03/08 15:35:16;;;;;;;776.60;713.10;;;4.30;99.90;;;;;;6152691;23;20488;-85
2023/03/08 15:37:43;;;;;;;775.33;710.83;;;4.30;99.90;;;;;;6163711;23;20973;-85
2023/03/08 15:40:13;;;;;;;783.53;720.17;;;4.40;99.90;;;;;;6164979;23;20496;-85
2023/03/08 15:42:42;;;;;;;771.43;709.83;;;4.30;99.90;;;;;;6165186;23;20752;-85
2023/03/08 15:45:11;;;;;;;774.30;712.20;;;4.20;99.90;;;;;;6165790;23;20434;-85
2023/03/08 15:47:38;;;;;;;772.60;712.00;;;4.20;99.90;;;;;;6165581;23;20410;-85
2023/03/08 15:50:07;;;;;;;777.87;716.37;;;4.20;99.90;;;;;;6165048;23;20421;-85
2023/03/08 15:52:34;;;;;;;772.47;713.27;;;4.10;99.90;;;;;;6165455;23;20406;-85
2023/03/08 15:55:01;;;;;;;780.23;718.03;;;4.20;99.90;;;;;;6165605;23;20430;-85
2023/03/08 15:57:28;;;;;;;787.07;725.40;;;4.20;99.90;;;;;;6164827;23;20425;-85
2023/03/08 15:59:56;;;;;;;777.03;716.83;;;4.10;99.90;;;;;;6164969;23;20409;-85
2023/03/08 16:02:23;;;;;;;783.37;722.57;;;4.20;99.90;;;;;;6164911;23;20418;-84
2023/03/08 16:04:54;;;;;;;779.77;719.83;;;4.10;99.90;;;;;;6164002;23;20446;-83
2023/03/08 16:07:21;;;;;;;778.00;717.20;;;4.20;99.90;;;;;;6155220;23;20398;-80
2023/03/08 16:09:48;;;;;;;773.37;714.77;;;4.10;99.90;;;;;;6129094;23;20472;-83
2023/03/08 16:12:15;;;;;;;775.33;717.77;;;4.10;99.90;;;;;;6155339;23;20496;-83
2023/03/08 16:14:47;;;;;;;769.70;716.77;;;4.00;99.90;;;;;;6155376;23;21190;-82
2023/03/08 16:17:17;;;;;;;780.80;730.73;;;3.90;99.90;;;;;;6154917;23;20464;-82
2023/03/08 16:19:44;;;;;;;770.23;722.70;;;3.90;99.90;;;;;;6155062;23;20414;-82
2023/03/08 16:22:11;;;;;;;789.90;737.83;;;3.90;99.90;;;;;;6129490;23;20457;-83
2023/03/08 16:24:38;;;;;;;769.97;723.40;;;4.00;99.90;;;;;;6155485;23;20433;-83
2023/03/08 16:27:06;;;;;;;771.77;724.40;;;3.80;99.90;;;;;;6155675;23;20517;-82
2023/03/08 16:29:34;;;;;;;757.80;713.50;;;3.80;99.90;;;;;;6128821;23;20838;-83
2023/03/08 16:32:01;;;;;;;764.93;720.20;;;3.70;99.90;;;;;;6155369;23;20398;-82
2023/03/08 16:34:30;;;;;;;751.17;708.70;;;3.70;99.90;;;;;;6154543;23;20434;-83
2023/03/08 16:36:57;;;;;;;722.33;685.77;;;3.70;99.90;;;;;;6153915;23;20970;-83
2023/03/08 16:39:28;;;;;;;740.63;701.60;;;3.70;99.90;;;;;;6153945;23;20417;-85
2023/03/08 16:41:59;;;;;;;746.90;705.27;;;3.50;99.90;;;;;;6153638;23;20418;-85
2023/03/08 16:44:29;;;;;;;756.03;712.57;;;3.60;99.90;;;;;;6164153;23;20442;-85
2023/03/08 16:46:57;;;;;;;745.23;704.37;;;3.60;99.90;;;;;;6164563;23;20472;-86
2023/03/08 17:02:37;;;;;;;663.37;632.90;;;3.70;99.90;;;;;;6135479;22;4849013;-84
2023/03/08 17:05:10;;;;;;;667.20;635.90;;;3.50;99.90;;;;;;6251426;22;20958;-84
2023/03/08 17:07:42;;;;;;;649.87;620.30;;;3.40;99.90;;;;;;6252368;23;20397;-84
2023/03/08 17:10:11;;;;;;;577.93;553.37;;;3.40;99.90;;;;;;6250350;23;20434;-86
2023/03/08 17:12:40;;;;;;;614.53;586.07;;;3.30;99.90;;;;;;6249544;23;20414;-86
2023/03/08 17:15:09;;;;;;;603.87;575.30;;;3.30;99.90;;;;;;6249814;22;20954;-86
2023/03/08 17:17:39;;;;;;;613.23;583.43;;;3.40;99.90;;;;;;6251511;22;20455;-85
2023/03/08 17:20:07;;;;;;;562.87;537.37;;;3.30;99.90;;;;;;6250455;22;20422;-86
2023/03/08 17:22:35;;;;;;;622.33;592.37;;;3.20;99.90;;;;;;6250157;23;20916;-85
2023/03/08 17:25:02;;;;;;;622.47;593.10;;;3.40;99.90;;;;;;6251903;22;20521;-86
2023/03/08 17:27:30;;;;;;;599.67;572.37;;;3.30;99.90;;;;;;6252273;22;20410;-86
2023/03/08 17:29:59;;;;;;;651.97;620.40;;;3.30;99.90;;;;;;6250643;22;20448;-86
2023/03/08 17:32:26;;;;;;;612.03;584.00;;;3.20;99.90;;;;;;6252038;23;20437;-87
2023/03/08 17:34:54;;;;;;;639.13;607.53;;;3.30;99.90;;;;;;6251645;22;20458;-87
2023/03/08 17:37:22;;;;;;;694.80;658.10;;;3.10;99.90;;;;;;6252018;23;20442;-86
2023/03/08 17:39:49;;;;;;;685.47;649.60;;;3.30;99.90;;;;;;6251376;23;20411;-86
2023/03/08 17:42:17;;;;;;;669.13;633.83;;;3.20;99.90;;;;;;6261329;22;20805;-86
2023/03/08 17:44:43;;;;;;;636.67;606.10;;;3.20;99.90;;;;;;6250821;22;21012;-86
2023/03/08 17:47:12;;;;;;;635.30;604.10;;;3.10;99.90;;;;;;6251720;23;20484;-86
2023/03/08 17:49:39;;;;;;;603.73;574.23;;;3.20;99.90;;;;;;6250855;23;20922;-87
2023/03/08 17:52:08;;;;;;;652.67;619.13;;;3.10;99.90;;;;;;6260534;22;20438;-86
2023/03/08 17:54:35;;;;;;;701.47;660.27;;;3.10;99.90;;;;;;6249980;22;20992;-86
2023/03/08 17:57:02;;;;;;;686.83;650.23;;;3.10;99.90;;;;;;6250692;23;20938;-86
2023/03/08 17:59:32;;;;;;;685.67;649.17;;;3.10;99.90;;;;;;6250513;23;20460;-85
2023/03/08 18:01:59;;;;;;;685.10;648.00;;;3.10;99.90;;;;;;6248775;22;20526;-85
2023/03/08 18:04:26;;;;;;;673.27;639.17;;;3.20;99.90;;;;;;6243488;22;20477;-83
2023/03/08 18:06:53;;;;;;;675.87;640.97;;;3.00;99.90;;;;;;6242665;23;20509;-83
2023/03/08 18:09:21;;;;;;;727.67;684.17;;;2.90;99.90;;;;;;6243433;23;20439;-83
2023/03/08 18:11:48;;;;;;;596.37;570.40;;;3.00;99.90;;;;;;6243601;23;20435;-83
2023/03/08 18:14:16;;;;;;;608.20;579.60;;;2.90;99.90;;;;;;6244160;22;20439;-83
2023/03/08 18:16:43;;;;;;;615.90;585.93;;;3.00;99.90;;;;;;6243307;23;20441;-83
2023/03/08 18:19:11;;;;;;;670.83;635.20;;;3.00;99.90;;;;;;6243077;23;20411;-83
